Time;durP1;ratioP1;P1;durP2;ratioP2;P2;SDS_P1;SDS_P2;PMS_P1;PMS_P2;Temp;Humidity;BMP_temperature;BMP_pressure;BME280_temperature;BME280_humidity;BME280_pressure;Samples;Min_cycle;Max_cycle;Signal;HPM_P1;HPM_P2
2024/01/03 00:01:35;;;;;;;15.70;7.40;;;;;;;6.23;100.00;97217.69;5013547;28;20090;-95
2024/01/03 00:04:01;;;;;;;15.75;5.00;;;;;;;6.18;100.00;97210.41;5003267;28;20034;-96
2024/01/03 00:06:33;;;;;;;12.93;5.57;;;;;;;6.20;100.00;97215.47;5037588;28;20114;-96
2024/01/03 00:21:35;;;;;;;13.10;2.20;;;;;;;5.87;100.00;97201.19;5044836;28;20040;-95
2024/01/03 00:25:05;;;;;;;9.13;2.03;;;;;;;5.83;100.00;97206.00;5026928;28;20155;-96
2024/01/03 00:31:44;;;;;;;11.07;2.30;;;;;;;5.86;100.00;97201.38;4970840;28;19924;-96
2024/01/03 00:34:51;;;;;;;10.30;2.67;;;;;;;5.86;100.00;97206.63;4991717;28;20512;-96
2024/01/03 00:37:36;;;;;;;8.02;1.90;;;;;;;5.90;100.00;97197.38;4980568;28;20045;-96
2024/01/03 00:41:02;;;;;;;15.70;4.85;;;;;;;5.94;100.00;97196.00;5011315;28;20025;-96
2024/01/03 00:43:34;;;;;;;9.63;3.03;;;;;;;5.89;100.00;97204.41;4963110;28;20049;-96
2024/01/03 00:46:01;;;;;;;7.20;2.28;;;;;;;5.85;100.00;97203.19;5001708;28;20045;-96
2024/01/03 00:48:52;;;;;;;13.32;4.05;;;;;;;5.89;100.00;97204.41;4966358;28;20038;-95
2024/01/03 00:51:19;;;;;;;10.23;2.80;;;;;;;5.78;100.00;97207.59;4984127;23;20054;-91
2024/01/03 00:53:45;;;;;;;14.93;2.88;;;;;;;5.78;100.00;97216.25;5005158;28;20036;-92
2024/01/03 00:56:11;;;;;;;4.35;1.45;;;;;;;5.85;100.00;97213.66;5000041;28;20059;-91
2024/01/03 00:58:37;;;;;;;12.82;2.55;;;;;;;5.88;100.00;97215.09;4982631;28;20084;-91
2024/01/03 01:01:03;;;;;;;10.63;2.45;;;;;;;5.90;100.00;97208.66;5008722;28;20018;-96
2024/01/03 01:06:35;;;;;;;16.60;6.88;;;;;;;5.94;100.00;97199.41;5078158;22;20036;-94
2024/01/03 01:09:03;;;;;;;16.10;6.28;;;;;;;5.97;100.00;97203.47;5031389;28;20333;-93
2024/01/03 01:11:32;;;;;;;15.35;4.95;;;;;;;6.06;100.00;97198.88;5010284;23;20041;-94
2024/01/03 01:13:58;;;;;;;12.80;3.78;;;;;;;6.05;100.00;97207.75;4992339;28;20023;-93
2024/01/03 01:16:24;;;;;;;17.38;3.15;;;;;;;6.05;100.00;97198.06;4996459;28;20080;-93
2024/01/03 01:18:49;;;;;;;11.18;2.55;;;;;;;6.10;100.00;97199.31;4978710;28;20033;-93
2024/01/03 01:21:15;;;;;;;13.25;1.95;;;;;;;6.13;100.00;97202.31;4980065;28;20033;-93
2024/01/03 01:23:42;;;;;;;7.18;2.30;;;;;;;6.17;100.00;97213.22;4996980;28;20069;-94
2024/01/03 01:26:08;;;;;;;10.40;2.83;;;;;;;6.19;100.00;97211.22;4981159;28;20037;-93
2024/01/03 01:28:34;;;;;;;8.88;2.55;;;;;;;6.13;100.00;97199.69;4979639;28;20140;-93
2024/01/03 01:31:00;;;;;;;10.73;3.67;;;;;;;6.15;100.00;97212.59;4979779;28;20193;-93
2024/01/03 01:33:26;;;;;;;12.85;5.35;;;;;;;6.09;100.00;97206.34;4976357;28;20025;-94
2024/01/03 01:35:53;;;;;;;11.18;4.68;;;;;;;6.09;100.00;97203.72;4996677;28;20030;-93
2024/01/03 01:38:18;;;;;;;11.70;3.00;;;;;;;6.09;100.00;97206.34;4977746;28;20070;-93
2024/01/03 01:40:50;;;;;;;5.53;1.88;;;;;;;6.12;100.00;97207.75;4975128;28;20034;-94
2024/01/03 01:43:16;;;;;;;7.72;2.92;;;;;;;6.14;100.00;97213.63;4968335;28;20490;-95
2024/01/03 01:45:42;;;;;;;4.85;1.65;;;;;;;6.11;100.00;97204.34;4992261;28;20045;-94
2024/01/03 01:48:09;;;;;;;14.90;2.70;;;;;;;6.16;100.00;97211.63;4997255;28;20498;-93
2024/01/03 01:50:38;;;;;;;7.55;1.90;;;;;;;6.16;100.00;97209.00;4977853;28;20057;-93
2024/01/03 01:53:06;;;;;;;11.80;2.22;;;;;;;6.13;100.00;97206.78;4980504;28;20033;-92
2024/01/03 01:55:35;;;;;;;10.57;2.00;;;;;;;6.14;100.00;97208.38;4980673;28;20030;-93
2024/01/03 01:58:01;;;;;;;8.30;2.15;;;;;;;6.00;100.00;97199.63;4995128;28;20030;-93
2024/01/03 02:00:26;;;;;;;5.50;1.85;;;;;;;6.00;100.00;97218.78;4992677;28;20537;-93
2024/01/03 02:02:53;;;;;;;5.78;2.67;;;;;;;5.89;100.00;97207.03;4988881;28;20061;-93
2024/01/03 02:05:19;;;;;;;8.43;2.38;;;;;;;5.88;100.00;97209.84;4978830;28;20076;-93
2024/01/03 02:07:45;;;;;;;6.10;1.92;;;;;;;5.86;100.00;97202.19;4980534;28;20033;-94
2024/01/03 02:10:11;;;;;;;4.75;1.88;;;;;;;5.93;100.00;97215.31;4979682;28;20525;-93
2024/01/03 02:12:37;;;;;;;10.63;2.38;;;;;;;5.94;100.00;97222.19;5002320;28;20135;-93
2024/01/03 02:15:04;;;;;;;10.82;2.42;;;;;;;5.95;100.00;97215.94;5018669;28;20039;-93
2024/01/03 02:17:35;;;;;;;7.70;2.08;;;;;;;5.98;100.00;97218.19;5017973;28;20025;-93
2024/01/03 02:20:01;;;;;;;4.82;1.45;;;;;;;5.92;100.00;97214.53;5003364;28;20098;-91
2024/01/03 02:22:32;;;;;;;7.35;2.17;;;;;;;5.99;100.00;97214.53;5017196;28;20037;-94
2024/01/03 02:24:59;;;;;;;7.82;1.85;;;;;;;5.96;100.00;97217.56;5018065;28;21176;-93
2024/01/03 02:27:25;;;;;;;12.30;2.17;;;;;;;5.98;100.00;97218.19;4995537;28;20033;-94
2024/01/03 02:29:51;;;;;;;9.10;1.90;;;;;;;6.00;100.00;97220.59;5008000;28;20079;-93
2024/01/03 02:32:17;;;;;;;7.72;2.38;;;;;;;6.03;100.00;97217.59;5001867;28;20036;-94
2024/01/03 02:34:43;;;;;;;8.38;2.20;;;;;;;6.10;100.00;97215.03;5012345;28;20436;-94
2024/01/03 02:37:10;;;;;;;6.35;2.33;;;;;;;6.13;100.00;97219.88;5002428;28;20064;-94
2024/01/03 02:39:36;;;;;;;14.35;2.38;;;;;;;6.13;100.00;97215.44;4999899;28;20428;-94
2024/01/03 02:42:02;;;;;;;6.82;2.40;;;;;;;6.09;100.00;97208.97;5016465;28;20037;-93
2024/01/03 02:44:28;;;;;;;13.57;2.20;;;;;;;6.17;100.00;97221.09;5001004;28;20033;-94
2024/01/03 02:46:57;;;;;;;5.10;1.88;;;;;;;6.21;100.00;97214.47;5018486;28;20029;-94
2024/01/03 02:49:23;;;;;;;4.05;1.73;;;;;;;6.21;100.00;97227.59;5012745;28;20087;-94
2024/01/03 02:51:49;;;;;;;10.75;1.92;;;;;;;6.15;100.00;97220.47;5014188;28;20036;-94
2024/01/03 02:54:15;;;;;;;11.43;2.50;;;;;;;6.11;100.00;97220.09;4989290;28;20134;-93
2024/01/03 02:56:41;;;;;;;10.73;2.60;;;;;;;6.12;100.00;97229.56;5007364;28;20079;-94
2024/01/03 02:59:07;;;;;;;9.10;2.08;;;;;;;6.09;100.00;97219.47;5000721;28;20033;-94
2024/01/03 03:01:33;;;;;;;18.60;2.45;;;;;;;6.14;100.00;97227.56;5001769;28;20037;-93
2024/01/03 03:03:59;;;;;;;11.40;2.25;;;;;;;6.14;100.00;97226.75;5001355;28;20040;-93
2024/01/03 03:06:25;;;;;;;6.85;2.00;;;;;;;6.19;100.00;97232.22;5019999;28;20029;-94
2024/01/03 03:08:51;;;;;;;16.00;2.63;;;;;;;6.21;100.00;97235.47;5002911;28;20029;-94
2024/01/03 03:11:17;;;;;;;15.40;2.50;;;;;;;6.25;100.00;97234.06;4997554;28;20087;-93
2024/01/03 03:13:43;;;;;;;12.40;2.70;;;;;;;6.25;100.00;97233.22;5018517;28;20028;-93
2024/01/03 03:16:09;;;;;;;12.82;2.45;;;;;;;6.26;100.00;97233.03;5001041;28;20033;-94
2024/01/03 03:18:35;;;;;;;16.45;3.00;;;;;;;6.29;100.00;97234.47;5016118;28;20030;-94
2024/01/03 03:21:00;;;;;;;18.67;2.92;;;;;;;6.29;100.00;97240.50;5019724;28;20039;-93
2024/01/03 03:23:26;;;;;;;18.48;2.55;;;;;;;6.30;100.00;97233.47;5018621;28;20029;-94
2024/01/03 03:25:52;;;;;;;16.20;3.33;;;;;;;6.28;100.00;97233.66;4991655;28;20412;-93
2024/01/03 03:28:19;;;;;;;14.63;2.78;;;;;;;6.32;100.00;97234.09;5001775;28;20033;-94
2024/01/03 03:30:45;;;;;;;16.65;3.65;;;;;;;6.26;100.00;97227.78;5008925;28;20053;-94
2024/01/03 03:33:11;;;;;;;18.40;2.95;;;;;;;6.26;100.00;97233.03;5030171;28;20052;-94
2024/01/03 03:35:36;;;;;;;14.85;2.85;;;;;;;6.35;100.00;97236.31;4995742;28;20544;-94
2024/01/03 03:38:02;;;;;;;16.70;2.97;;;;;;;6.37;100.00;97238.75;5002183;28;20094;-94
2024/01/03 03:40:28;;;;;;;13.23;2.67;;;;;;;6.35;100.00;97227.63;5003438;28;20426;-93
2024/01/03 03:42:54;;;;;;;16.27;3.47;;;;;;;6.39;100.00;97231.47;5026752;28;20063;-94
2024/01/03 03:45:19;;;;;;;14.52;3.13;;;;;;;6.42;100.00;97239.75;5016733;28;20045;-93
2024/01/03 03:47:47;;;;;;;9.68;2.53;;;;;;;6.45;100.00;97234.09;4997409;28;20424;-94
2024/01/03 03:50:12;;;;;;;11.32;2.63;;;;;;;6.44;100.00;97237.75;5009321;28;20029;-94
2024/01/03 03:52:40;;;;;;;9.48;2.47;;;;;;;6.46;100.00;97237.56;5016261;28;20041;-93
2024/01/03 03:55:07;;;;;;;14.27;2.35;;;;;;;6.48;100.00;97242.59;5016837;28;20049;-93
2024/01/03 03:57:34;;;;;;;14.50;2.30;;;;;;;6.48;100.00;97232.94;5017101;28;20035;-93
2024/01/03 04:00:03;;;;;;;8.38;2.15;;;;;;;6.51;100.00;97237.78;4994317;28;20123;-94
2024/01/03 04:02:38;;;;;;;7.18;1.42;;;;;;;6.48;100.00;97238.19;5015059;28;21554;-93
2024/01/03 04:05:04;;;;;;;5.95;1.75;;;;;;;6.51;100.00;97239.59;5014951;28;20057;-94
2024/01/03 04:07:31;;;;;;;8.35;2.00;;;;;;;6.51;100.00;97245.66;5010312;28;20539;-94
2024/01/03 04:09:57;;;;;;;7.93;1.45;;;;;;;6.49;100.00;97239.78;4997670;28;20030;-94
2024/01/03 04:12:23;;;;;;;8.45;2.10;;;;;;;6.52;100.00;97246.44;5013820;28;20477;-92
2024/01/03 04:14:51;;;;;;;5.97;1.92;;;;;;;6.57;100.00;97251.91;5015289;28;20033;-94
2024/01/03 04:17:18;;;;;;;9.43;2.22;;;;;;;6.58;100.00;97256.97;5016490;28;20044;-93
2024/01/03 04:19:44;;;;;;;4.88;1.52;;;;;;;6.57;100.00;97257.16;4995068;28;20022;-95
2024/01/03 04:22:10;;;;;;;5.95;1.45;;;;;;;6.57;100.00;97257.97;5001717;28;20496;-93
2024/01/03 04:24:35;;;;;;;12.23;1.70;;;;;;;6.57;100.00;97257.16;4992049;28;20120;-94
2024/01/03 04:27:01;;;;;;;5.05;1.58;;;;;;;6.56;100.00;97258.19;5017127;28;20443;-94
2024/01/03 04:29:27;;;;;;;8.68;1.40;;;;;;;6.61;100.00;97266.25;5000367;28;20087;-94
2024/01/03 04:31:53;;;;;;;8.48;2.25;;;;;;;6.61;100.00;97268.06;5001281;28;20038;-93
2024/01/03 04:34:19;;;;;;;6.43;1.00;;;;;;;6.61;100.00;97278.56;5014874;28;20025;-94
2024/01/03 04:36:45;;;;;;;6.43;1.15;;;;;;;6.54;100.00;97263.63;5017584;28;20052;-94
2024/01/03 04:39:11;;;;;;;12.38;1.52;;;;;;;6.62;100.00;97274.94;5001066;28;20017;-93
2024/01/03 04:41:36;;;;;;;5.57;1.23;;;;;;;6.60;100.00;97274.31;5001760;28;20374;-94
2024/01/03 04:44:02;;;;;;;8.02;1.83;;;;;;;6.64;100.00;97280.81;5014785;28;20386;-94
2024/01/03 04:46:28;;;;;;;8.13;0.98;;;;;;;6.63;100.00;97271.28;5012069;28;20475;-94
2024/01/03 04:48:54;;;;;;;6.28;1.48;;;;;;;6.72;100.00;97285.84;4988668;28;20532;-93
2024/01/03 04:51:20;;;;;;;3.70;1.08;;;;;;;6.75;100.00;97295.16;5007034;28;20030;-93
2024/01/03 04:53:46;;;;;;;6.20;0.77;;;;;;;6.78;100.00;97289.53;5017168;28;20036;-93
2024/01/03 04:56:12;;;;;;;5.53;0.80;;;;;;;6.75;100.00;97280.22;4992600;28;20472;-94
2024/01/03 04:58:38;;;;;;;7.90;1.13;;;;;;;6.80;100.00;97277.81;5013319;28;20061;-94
2024/01/03 05:01:04;;;;;;;7.28;1.17;;;;;;;6.87;100.00;97303.25;5001501;28;20026;-94
2024/01/03 05:03:29;;;;;;;4.60;0.68;;;;;;;6.86;100.00;97296.41;4998182;28;20025;-94
2024/01/03 05:05:55;;;;;;;7.03;0.93;;;;;;;6.88;100.00;97304.91;4999860;28;20033;-94
2024/01/03 05:08:21;;;;;;;6.57;0.80;;;;;;;6.89;100.00;97298.63;5011106;28;20124;-93
2024/01/03 05:10:47;;;;;;;4.47;1.45;;;;;;;6.90;100.00;97297.63;4989178;28;20050;-92
2024/01/03 05:13:13;;;;;;;7.18;1.02;;;;;;;6.88;100.00;97300.44;5013785;28;20087;-93
2024/01/03 05:15:39;;;;;;;1.70;0.80;;;;;;;6.94;100.00;97301.47;4998426;28;20030;-94
2024/01/03 05:18:04;;;;;;;11.70;1.00;;;;;;;6.89;100.00;97303.88;5024142;28;20374;-94
2024/01/03 05:20:30;;;;;;;7.90;0.80;;;;;;;6.94;100.00;97310.16;5016615;28;20032;-95
2024/01/03 05:22:56;;;;;;;3.72;1.08;;;;;;;6.91;100.00;97307.91;4999871;28;20041;-94
2024/01/03 05:25:21;;;;;;;7.28;0.80;;;;;;;6.95;100.00;97319.66;5016190;28;20033;-94
2024/01/03 05:27:47;;;;;;;3.85;0.85;;;;;;;6.94;100.00;97318.03;4996456;28;20037;-94
2024/01/03 05:30:13;;;;;;;5.65;0.75;;;;;;;6.93;100.00;97316.41;4994262;28;20045;-94
2024/01/03 05:32:39;;;;;;;6.45;1.00;;;;;;;6.96;100.00;97325.69;5007078;28;20059;-93
2024/01/03 05:35:05;;;;;;;5.80;0.70;;;;;;;6.98;100.00;97326.31;5016066;28;20033;-94
2024/01/03 05:37:31;;;;;;;4.35;1.05;;;;;;;6.96;100.00;97325.69;4993448;28;20531;-94
2024/01/03 05:39:57;;;;;;;3.53;0.63;;;;;;;6.97;100.00;97329.16;4997850;28;20401;-93
2024/01/03 05:42:23;;;;;;;1.20;0.70;;;;;;;6.96;100.00;97333.56;5005502;28;20045;-94
2024/01/03 05:44:49;;;;;;;5.80;0.70;;;;;;;6.98;100.00;97331.56;4996764;28;20033;-94
2024/01/03 05:47:14;;;;;;;3.03;0.65;;;;;;;6.98;100.00;97330.75;4993965;28;20048;-94
2024/01/03 05:49:41;;;;;;;6.32;0.85;;;;;;;6.95;100.00;97337.22;5014020;28;20473;-93
2024/01/03 05:52:06;;;;;;;4.07;0.77;;;;;;;6.97;100.00;97329.97;4994908;28;20497;-94
2024/01/03 05:54:32;;;;;;;4.80;0.95;;;;;;;6.95;100.00;97335.41;4996850;28;20032;-93
2024/01/03 05:57:00;;;;;;;3.65;0.57;;;;;;;6.95;100.00;97338.03;4997105;28;20049;-94
2024/01/03 05:59:26;;;;;;;2.95;0.68;;;;;;;6.95;100.00;97342.47;5005068;28;20029;-93
2024/01/03 06:01:52;;;;;;;3.47;0.80;;;;;;;6.95;100.00;97342.47;5027133;28;20132;-94
2024/01/03 06:04:18;;;;;;;3.80;0.70;;;;;;;6.96;100.00;97354.59;5003561;28;20038;-94
2024/01/03 06:06:43;;;;;;;4.65;0.88;;;;;;;6.98;100.00;97355.19;4993944;28;20026;-94
2024/01/03 06:09:09;;;;;;;3.35;0.57;;;;;;;6.99;100.00;97356.03;5022174;28;20034;-94
2024/01/03 06:11:35;;;;;;;2.40;0.75;;;;;;;7.01;100.00;97354.00;5022346;28;20497;-93
2024/01/03 06:14:01;;;;;;;5.15;0.52;;;;;;;7.01;100.00;97351.38;5008437;28;20033;-94
2024/01/03 06:16:26;;;;;;;7.13;0.93;;;;;;;7.01;100.00;97359.25;4991162;28;20034;-94
2024/01/03 06:18:52;;;;;;;5.47;0.60;;;;;;;7.03;100.00;97363.31;5011102;28;20080;-94
2024/01/03 06:21:18;;;;;;;1.35;0.50;;;;;;;7.00;100.00;97363.69;5011736;28;20033;-94
2024/01/03 06:23:43;;;;;;;7.15;0.70;;;;;;;7.01;100.00;97367.13;5012307;28;20091;-93
2024/01/03 06:26:09;;;;;;;2.92;0.70;;;;;;;6.95;100.00;97363.47;5010281;28;20041;-94
2024/01/03 06:28:35;;;;;;;6.60;0.60;;;;;;;6.93;100.00;97365.47;5005771;28;20033;-95
2024/01/03 06:31:02;;;;;;;8.00;0.60;;;;;;;6.91;100.00;97370.94;5002277;28;20026;-94
2024/01/03 06:33:28;;;;;;;3.65;0.75;;;;;;;6.89;100.00;97372.16;5008620;28;20044;-94
2024/01/03 06:35:54;;;;;;;5.55;1.10;;;;;;;6.89;100.00;97377.41;4992469;28;20061;-93
2024/01/03 06:38:20;;;;;;;4.03;0.68;;;;;;;6.87;100.00;97377.59;4995819;28;20045;-93
2024/01/03 06:40:46;;;;;;;4.68;0.63;;;;;;;6.87;100.00;97384.66;4997821;28;20048;-94
2024/01/03 06:43:11;;;;;;;7.88;0.85;;;;;;;6.85;100.00;97390.09;4993110;28;20041;-94
2024/01/03 06:45:37;;;;;;;3.95;0.57;;;;;;;6.82;100.00;97385.25;4999574;28;20029;-94
2024/01/03 06:48:03;;;;;;;7.55;0.60;;;;;;;6.79;100.00;97393.50;4994754;28;20389;-93
2024/01/03 06:50:29;;;;;;;4.05;0.60;;;;;;;6.72;100.00;97393.47;4998185;28;20080;-94
2024/01/03 06:52:54;;;;;;;4.72;0.63;;;;;;;6.65;100.00;97398.72;4990169;28;20025;-94
2024/01/03 06:55:20;;;;;;;2.47;0.50;;;;;;;6.66;100.00;97400.31;5016762;28;20037;-95
2024/01/03 06:57:48;;;;;;;7.22;0.50;;;;;;;6.64;100.00;97401.53;4999116;28;20037;-94
2024/01/03 07:00:15;;;;;;;3.50;0.68;;;;;;;6.66;100.00;97399.50;4989886;28;20033;-95
2024/01/03 07:02:41;;;;;;;7.35;0.70;;;;;;;6.69;100.00;97407.81;5011724;28;20593;-94
2024/01/03 07:05:07;;;;;;;6.97;0.73;;;;;;;6.71;100.00;97407.63;4986719;28;20045;-93
2024/01/03 07:07:33;;;;;;;7.68;0.70;;;;;;;6.70;100.00;97412.03;5014136;28;20085;-94
2024/01/03 07:09:58;;;;;;;3.55;0.73;;;;;;;6.71;100.00;97410.22;5013063;28;20064;-94
2024/01/03 07:12:24;;;;;;;4.25;0.52;;;;;;;6.71;100.00;97412.84;5008910;28;20073;-94
2024/01/03 07:14:50;;;;;;;3.63;0.50;;;;;;;6.70;100.00;97419.91;4998421;28;20029;-94
2024/01/03 07:17:15;;;;;;;4.13;0.68;;;;;;;6.67;100.00;97415.06;4995095;28;20233;-94
2024/01/03 07:19:41;;;;;;;3.75;0.70;;;;;;;6.64;100.00;97425.16;4996820;28;20064;-94
2024/01/03 07:22:07;;;;;;;2.63;0.90;;;;;;;6.62;100.00;97424.53;5014605;28;20041;-94
2024/01/03 07:24:36;;;;;;;7.15;0.68;;;;;;;6.61;100.00;97428.16;5013945;28;20021;-95
2024/01/03 07:27:02;;;;;;;5.78;0.70;;;;;;;6.58;100.00;97443.28;5013967;28;20041;-93
2024/01/03 07:29:28;;;;;;;3.65;0.60;;;;;;;6.55;100.00;97438.41;5030560;28;20532;-94
2024/01/03 07:31:54;;;;;;;4.75;0.80;;;;;;;6.57;100.00;97449.53;5010232;28;20045;-94
2024/01/03 07:34:19;;;;;;;7.50;0.50;;;;;;;6.55;100.00;97448.09;4992608;28;20470;-94
2024/01/03 07:36:45;;;;;;;4.28;0.40;;;;;;;6.54;100.00;97449.13;4997747;28;20026;-94
2024/01/03 07:39:11;;;;;;;3.10;0.40;;;;;;;6.55;100.00;97463.84;4998426;28;20032;-94
2024/01/03 07:41:37;;;;;;;3.85;0.70;;;;;;;6.54;100.00;97463.06;4995244;28;20038;-94
2024/01/03 07:44:03;;;;;;;4.82;0.65;;;;;;;6.53;100.00;97471.13;4997983;28;20033;-94
2024/01/03 07:46:29;;;;;;;3.83;0.80;;;;;;;6.51;100.00;97473.13;4987878;28;20124;-93
2024/01/03 07:48:54;;;;;;;3.20;0.45;;;;;;;6.48;100.00;97476.13;5017115;28;20120;-94
2024/01/03 07:51:20;;;;;;;3.60;0.63;;;;;;;6.49;100.00;97478.56;5015279;28;20029;-93
2024/01/03 07:53:46;;;;;;;4.35;0.60;;;;;;;6.51;100.00;97478.38;4996808;28;20030;-94
2024/01/03 07:56:12;;;;;;;3.13;0.65;;;;;;;6.49;100.00;97480.34;5014434;28;20052;-93
2024/01/03 07:58:37;;;;;;;2.00;0.50;;;;;;;6.49;100.00;97483.81;5017856;28;20033;-94
2024/01/03 08:01:03;;;;;;;3.03;0.95;;;;;;;6.49;100.00;97478.56;4995902;28;20075;-94
2024/01/03 08:03:29;;;;;;;3.97;0.40;;;;;;;6.51;100.00;97489.69;4996123;28;20038;-93
2024/01/03 08:05:55;;;;;;;2.80;0.68;;;;;;;6.52;100.00;97490.47;4998226;28;20429;-94
2024/01/03 08:08:21;;;;;;;6.25;0.90;;;;;;;6.55;100.00;97496.16;4997746;28;20021;-93
2024/01/03 08:10:46;;;;;;;5.75;1.45;;;;;;;6.59;100.00;97507.09;5004880;28;20038;-94
2024/01/03 08:13:12;;;;;;;8.10;0.88;;;;;;;6.60;100.00;97502.63;5001536;28;20792;-94
2024/01/03 08:15:38;;;;;;;2.17;0.50;;;;;;;6.63;100.00;97510.13;5000995;28;20466;-94
2024/01/03 08:18:04;;;;;;;8.90;2.22;;;;;;;6.66;100.00;97514.97;4999961;28;20035;-94
2024/01/03 08:20:30;;;;;;;2.70;0.80;;;;;;;6.70;100.00;97516.25;5009872;28;20025;-94
2024/01/03 08:22:56;;;;;;;5.57;0.80;;;;;;;6.70;100.00;97521.50;5001538;28;20026;-94
2024/01/03 08:25:22;;;;;;;7.20;0.90;;;;;;;6.73;100.00;97523.72;4995020;28;20030;-95
2024/01/03 08:27:48;;;;;;;6.43;0.85;;;;;;;6.77;100.00;97524.16;4997612;28;20030;-94
2024/01/03 08:30:14;;;;;;;8.52;0.80;;;;;;;6.78;100.00;97534.47;5026423;28;20540;-95
2024/01/03 08:32:40;;;;;;;4.68;0.77;;;;;;;6.82;100.00;97540.94;5001626;28;20021;-94
2024/01/03 08:35:07;;;;;;;5.43;1.05;;;;;;;6.84;100.00;97538.13;5014585;28;20104;-95
2024/01/03 08:37:33;;;;;;;5.78;0.60;;;;;;;6.85;100.00;97546.84;4998523;28;20022;-83
2024/01/03 08:40:00;;;;;;;3.42;0.60;;;;;;;6.86;100.00;97551.88;5011717;28;20022;-94
2024/01/03 08:42:26;;;;;;;3.95;0.60;;;;;;;6.87;100.00;97556.13;5007245;28;20160;-94
2024/01/03 08:44:52;;;;;;;7.75;0.90;;;;;;;6.90;100.00;97560.19;5012671;28;20112;-95
2024/01/03 08:47:18;;;;;;;4.00;0.70;;;;;;;6.89;100.00;97564.63;4998972;28;20037;-94
2024/01/03 08:49:45;;;;;;;9.43;1.02;;;;;;;6.91;100.00;97556.56;4991080;28;20849;-94
2024/01/03 08:52:12;;;;;;;5.25;1.05;;;;;;;6.89;100.00;97562.00;4990847;28;20034;-94
2024/01/03 08:54:39;;;;;;;8.10;1.40;;;;;;;6.91;100.00;97573.13;5007086;28;20083;-94
2024/01/03 08:57:04;;;;;;;5.85;1.13;;;;;;;6.90;100.00;97576.75;4999029;28;20029;-95
2024/01/03 08:59:30;;;;;;;10.88;1.42;;;;;;;6.90;100.00;97579.38;4993552;28;20540;-94
2024/01/03 09:01:56;;;;;;;8.65;0.98;;;;;;;6.91;100.00;97577.56;5007802;28;20037;-94
2024/01/03 09:04:22;;;;;;;8.65;0.90;;;;;;;6.90;100.00;97583.81;5015815;28;20034;-95
2024/01/03 09:06:51;;;;;;;10.30;1.35;;;;;;;6.97;100.00;97591.75;5016849;28;20042;-94
2024/01/03 09:09:17;;;;;;;2.78;0.80;;;;;;;6.98;100.00;97594.16;5015520;28;20052;-94
2024/01/03 09:11:43;;;;;;;10.25;2.40;;;;;;;7.00;100.00;97597.44;5014658;28;20119;-93
2024/01/03 09:14:09;;;;;;;4.80;1.10;;;;;;;7.04;100.00;97603.13;4993581;28;20596;-95
2024/01/03 09:16:35;;;;;;;7.45;1.35;;;;;;;7.09;100.00;97607.78;5010155;28;20025;-94
2024/01/03 09:19:02;;;;;;;7.18;1.58;;;;;;;7.11;100.00;97611.00;5011191;28;20037;-93
2024/01/03 09:21:30;;;;;;;7.15;1.23;;;;;;;7.11;100.00;97611.00;4998759;28;20033;-94
2024/01/03 09:23:56;;;;;;;11.73;1.50;;;;;;;7.15;100.00;97620.94;4988266;28;20040;-94
2024/01/03 09:26:23;;;;;;;6.22;1.25;;;;;;;7.18;100.00;97627.66;5001247;28;20483;-93
2024/01/03 09:28:49;;;;;;;7.28;1.58;;;;;;;7.20;100.00;97626.44;5013426;28;20524;-94
2024/01/03 09:31:15;;;;;;;9.13;1.23;;;;;;;7.24;100.00;97631.31;4985681;28;20121;-94
2024/01/03 09:33:41;;;;;;;5.85;1.20;;;;;;;7.25;100.00;97636.38;4992506;28;20034;-95
2024/01/03 09:36:21;;;;;;;5.57;1.10;;;;;;;7.29;100.00;97629.72;4986149;28;20438;-95
2024/01/03 09:38:48;;;;;;;5.90;1.23;;;;;;;7.26;100.00;97630.09;4996293;28;20455;-94
2024/01/03 09:41:14;;;;;;;5.75;1.05;;;;;;;7.29;100.00;97634.19;4980101;28;20044;-93
2024/01/03 09:43:48;;;;;;;8.98;1.30;;;;;;;7.32;100.00;97641.69;4996360;28;20026;-94
2024/01/03 09:46:14;;;;;;;11.07;1.33;;;;;;;7.35;100.00;97643.91;4983809;28;20026;-94
2024/01/03 09:48:44;;;;;;;7.50;1.70;;;;;;;7.45;100.00;97647.00;4976744;28;20030;-85
2024/01/03 09:51:10;;;;;;;9.23;1.23;;;;;;;7.42;100.00;97654.47;4991016;28;20026;-94
2024/01/03 09:53:37;;;;;;;7.07;1.58;;;;;;;7.48;100.00;97660.75;4992318;28;20033;-93
2024/01/03 09:56:03;;;;;;;15.10;1.63;;;;;;;7.52;100.00;97667.25;4993156;28;20038;-94
2024/01/03 09:58:29;;;;;;;7.00;1.27;;;;;;;7.57;100.00;97670.94;5003267;28;20034;-94
2024/01/03 10:00:55;;;;;;;10.15;1.15;;;;;;;7.64;100.00;97672.78;4994141;28;20026;-94
2024/01/03 10:03:20;;;;;;;5.88;0.85;;;;;;;7.71;100.00;97681.50;4991709;28;20069;-94
2024/01/03 10:05:46;;;;;;;7.07;1.30;;;;;;;7.80;100.00;97682.19;4995750;28;20060;-94
2024/01/03 10:08:17;;;;;;;11.07;1.48;;;;;;;7.93;100.00;97687.47;4978428;28;20092;-94
2024/01/03 10:10:46;;;;;;;8.02;1.38;;;;;;;7.96;100.00;97691.56;4998600;28;20034;-94
2024/01/03 10:13:18;;;;;;;9.27;1.42;;;;;;;8.05;100.00;97682.50;4975689;28;20048;-93
2024/01/03 10:15:47;;;;;;;10.25;1.70;;;;;;;8.07;100.00;97696.25;4997098;28;20033;-94
2024/01/03 10:18:17;;;;;;;10.90;1.33;;;;;;;8.14;100.00;97691.00;5007129;28;20049;-93
2024/01/03 10:20:44;;;;;;;8.73;1.08;;;;;;;8.11;100.00;97701.09;4983936;28;20022;-94
2024/01/03 10:23:12;;;;;;;9.02;1.25;;;;;;;8.15;100.00;97703.19;4991236;28;20041;-94
2024/01/03 10:25:39;;;;;;;13.93;1.40;;;;;;;8.19;100.00;97712.28;4997930;28;20501;-94
2024/01/03 10:28:07;;;;;;;8.20;1.25;;;;;;;8.21;100.00;97719.16;4997506;28;20096;-94
2024/01/03 10:30:33;;;;;;;9.40;1.35;;;;;;;8.23;100.00;97719.78;4995509;28;20406;-94
2024/01/03 10:33:07;;;;;;;15.00;1.30;;;;;;;8.28;100.00;97728.69;4993278;28;20044;-94
2024/01/03 10:35:35;;;;;;;10.75;1.35;;;;;;;8.32;100.00;97729.13;4973641;28;20032;-93
2024/01/03 10:38:02;;;;;;;10.80;2.22;;;;;;;8.36;100.00;97740.09;4985682;28;20041;-94
2024/01/03 10:40:36;;;;;;;12.25;1.30;;;;;;;8.41;100.00;97743.75;4991846;28;20026;-93
2024/01/03 10:43:03;;;;;;;12.02;1.27;;;;;;;8.42;100.00;97750.66;5008560;28;20124;-94
2024/01/03 10:45:30;;;;;;;7.57;1.33;;;;;;;8.48;100.00;97753.47;4989305;28;20078;-94
2024/01/03 10:47:57;;;;;;;11.70;1.80;;;;;;;8.49;100.00;97753.28;4993416;28;21185;-93
2024/01/03 10:50:23;;;;;;;13.70;1.67;;;;;;;8.51;100.00;97761.78;5011167;28;20017;-93
2024/01/03 10:52:55;;;;;;;11.50;1.50;;;;;;;8.54;100.00;97757.94;4995093;28;20486;-90
2024/01/03 10:55:35;;;;;;;19.35;2.05;;;;;;;8.55;100.00;97762.25;4990324;28;20033;-93
2024/01/03 10:58:10;;;;;;;10.80;2.17;;;;;;;8.56;100.00;97772.59;4994411;28;20025;-93
2024/01/03 11:00:58;;;;;;;14.50;1.70;;;;;;;8.59;100.00;97770.53;4988283;28;20029;-94
2024/01/03 11:03:48;;;;;;;7.45;1.30;;;;;;;8.58;100.00;97777.66;4993119;28;20091;-94
2024/01/03 11:06:26;;;;;;;13.63;2.10;;;;;;;8.61;100.00;97779.06;4995473;28;20034;-94
2024/01/03 11:08:57;;;;;;;7.35;1.35;;;;;;;8.64;100.00;97783.94;4988901;28;20033;-93
2024/01/03 11:11:29;;;;;;;13.90;1.25;;;;;;;8.64;100.00;97787.41;4987557;28;20134;-94
2024/01/03 11:13:56;;;;;;;14.27;1.20;;;;;;;8.56;100.00;97785.75;5022750;28;20030;-95
2024/01/03 11:16:39;;;;;;;6.63;1.23;;;;;;;8.65;100.00;97793.44;5008962;28;20030;-94
2024/01/03 11:19:08;;;;;;;7.80;1.00;;;;;;;8.64;100.00;97797.09;4989622;28;20042;-94
2024/01/03 11:21:36;;;;;;;13.65;1.25;;;;;;;8.63;100.00;97796.28;4971371;28;20249;-94
2024/01/03 11:24:02;;;;;;;9.95;2.33;;;;;;;8.68;100.00;97801.78;5028841;28;20030;-95
2024/01/03 11:26:53;;;;;;;16.42;1.95;;;;;;;8.69;100.00;97800.75;5000199;28;20478;-93
2024/01/03 11:29:48;;;;;;;5.57;0.90;;;;;;;8.71;100.00;97802.41;5008044;28;20034;-94
2024/01/03 11:32:35;;;;;;;13.02;1.20;;;;;;;8.72;100.00;97807.47;4995414;28;20052;-96
2024/01/03 11:35:08;;;;;;;10.63;1.05;;;;;;;8.72;100.00;97806.66;4991173;28;20034;-94
2024/01/03 11:37:36;;;;;;;10.45;1.15;;;;;;;8.72;100.00;97806.66;4995310;28;20061;-95
2024/01/03 11:40:04;;;;;;;13.60;1.98;;;;;;;8.71;100.00;97821.66;4981696;28;20036;-94
2024/01/03 11:42:31;;;;;;;10.25;1.63;;;;;;;8.67;100.00;97815.16;5012016;28;20022;-95
2024/01/03 11:45:13;;;;;;;8.00;0.73;;;;;;;8.72;100.00;97825.91;5009678;28;20088;-95
2024/01/03 11:47:44;;;;;;;7.60;1.15;;;;;;;8.66;100.00;97827.50;4983960;28;20037;-94
2024/01/03 11:50:12;;;;;;;5.70;1.25;;;;;;;8.71;100.00;97839.28;4977110;28;20463;-94
2024/01/03 11:52:40;;;;;;;11.30;1.15;;;;;;;8.70;100.00;97825.28;4992119;28;20208;-95
2024/01/03 11:55:10;;;;;;;7.40;1.05;;;;;;;8.74;100.00;97834.44;4995455;28;20482;-94